createdAt,value
2022-09-25T00:02:24.956Z,13.40
2022-09-25T00:04:55.564Z,13.50
2022-09-25T00:07:28.494Z,13.50
2022-09-25T00:10:07.517Z,13.50
2022-09-25T00:12:38.995Z,13.50
2022-09-25T00:15:12.690Z,13.50
2022-09-25T00:17:43.458Z,13.50
2022-09-25T00:20:14.679Z,13.50
2022-09-25T00:22:44.913Z,13.50
2022-09-25T00:25:16.150Z,13.50
2022-09-25T00:27:52.217Z,13.40
2022-09-25T00:30:22.605Z,13.50
2022-09-25T00:33:00.223Z,13.50
2022-09-25T00:35:30.958Z,13.50
2022-09-25T00:38:07.013Z,13.50
2022-09-25T00:40:36.812Z,13.20
2022-09-25T00:43:14.790Z,13.50
2022-09-25T00:45:47.471Z,13.50
2022-09-25T00:48:19.048Z,13.50
2022-09-25T00:50:53.672Z,13.50
2022-09-25T00:53:29.551Z,13.40
2022-09-25T00:56:00.222Z,13.50
2022-09-25T00:58:36.143Z,13.50
2022-09-25T01:01:05.511Z,13.50
2022-09-25T01:03:35.642Z,13.50
2022-09-25T01:06:05.580Z,13.50
2022-09-25T01:08:38.595Z,13.50
2022-09-25T01:11:07.724Z,13.30
2022-09-25T01:13:39.331Z,13.50
2022-09-25T01:16:17.390Z,13.40
2022-09-25T01:19:00.276Z,13.50
2022-09-25T01:21:56.574Z,13.50
2022-09-25T01:24:44.756Z,13.40
2022-09-25T01:27:34.605Z,13.50
2022-09-25T01:30:09.075Z,13.40
2022-09-25T01:32:56.650Z,13.40
2022-09-25T01:35:41.069Z,13.40
2022-09-25T01:38:23.062Z,13.40
2022-09-25T01:40:58.930Z,13.40
2022-09-25T01:43:39.700Z,13.40
2022-09-25T01:46:44.867Z,13.40
2022-09-25T01:49:33.279Z,13.40
2022-09-25T01:52:06.315Z,13.40
2022-09-25T01:54:44.426Z,13.40
2022-09-25T01:57:21.186Z,13.40
2022-09-25T01:59:58.593Z,13.30
2022-09-25T02:02:36.122Z,13.30
2022-09-25T02:05:12.551Z,13.30
2022-09-25T02:07:51.218Z,13.40
2022-09-25T02:10:29.042Z,13.40
2022-09-25T02:13:06.960Z,13.40
2022-09-25T02:15:39.879Z,13.40
2022-09-25T02:18:38.870Z,13.30
2022-09-25T02:21:19.687Z,13.30
2022-09-25T02:24:02.965Z,13.30
2022-09-25T02:26:35.610Z,13.30
2022-09-25T02:29:05.849Z,13.20
2022-09-25T02:31:42.277Z,13.20
2022-09-25T02:34:16.773Z,13.10
2022-09-25T02:36:46.253Z,13.20
2022-09-25T02:39:21.349Z,13.20
2022-09-25T02:42:02.359Z,13.20
2022-09-25T02:44:44.863Z,13.10
2022-09-25T02:47:29.903Z,13.10
2022-09-25T02:50:10.651Z,13.10
2022-09-25T02:52:49.120Z,13.10
2022-09-25T02:55:25.894Z,13.10
2022-09-25T02:58:01.832Z,13.10
2022-09-25T03:00:31.193Z,13.10
2022-09-25T03:03:04.461Z,13.10
2022-09-25T03:05:37.324Z,13.10
2022-09-25T03:08:24.435Z,13.10
2022-09-25T03:10:54.656Z,13.10
2022-09-25T03:13:32.202Z,13.10
2022-09-25T03:16:09.491Z,13.10
2022-09-25T03:18:40.429Z,13.00
2022-09-25T03:21:13.855Z,13.00
2022-09-25T03:23:42.779Z,13.00
2022-09-25T03:26:12.472Z,13.00
2022-09-25T03:28:42.012Z,13.00
2022-09-25T03:31:14.136Z,13.00
2022-09-25T03:33:44.939Z,13.00
2022-09-25T03:36:19.135Z,13.00
2022-09-25T03:38:50.895Z,12.90
2022-09-25T03:41:22.490Z,12.90
2022-09-25T03:43:55.491Z,12.90
2022-09-25T03:46:27.517Z,12.90
2022-09-25T03:48:59.257Z,12.90
2022-09-25T03:51:32.180Z,12.90
2022-09-25T03:54:05.274Z,12.90
2022-09-25T03:56:34.640Z,12.80
2022-09-25T03:59:06.139Z,12.80
2022-09-25T04:01:35.066Z,12.80
2022-09-25T04:04:04.394Z,12.80
2022-09-25T04:06:35.125Z,12.80
2022-09-25T04:09:04.855Z,12.80
2022-09-25T04:11:35.268Z,12.80
2022-09-25T04:14:08.737Z,13.00
2022-09-25T04:16:38.474Z,12.70
2022-09-25T04:19:11.332Z,12.70
2022-09-25T04:22:08.206Z,12.60
2022-09-25T04:24:53.933Z,12.60
2022-09-25T04:27:24.230Z,12.60
2022-09-25T04:29:59.350Z,12.60
2022-09-25T04:32:45.546Z,12.50
2022-09-25T04:35:15.493Z,11.80
2022-09-25T04:37:46.458Z,12.40
2022-09-25T04:40:15.820Z,12.40
2022-09-25T04:42:47.706Z,12.40
2022-09-25T04:45:18.120Z,12.30
2022-09-25T04:47:47.055Z,12.30
2022-09-25T04:50:16.966Z,12.60
2022-09-25T04:52:50.756Z,13.30
2022-09-25T04:55:20.397Z,13.80
2022-09-25T04:57:58.702Z,14.50
2022-09-25T05:00:30.643Z,14.90
2022-09-25T05:03:01.527Z,15.40
2022-09-25T05:05:31.210Z,15.30
2022-09-25T05:08:03.460Z,15.50
2022-09-25T05:10:34.928Z,15.60
2022-09-25T05:13:05.529Z,15.70
2022-09-25T05:15:35.930Z,15.90
2022-09-25T05:18:07.428Z,16.10
2022-09-25T05:20:37.714Z,16.10
2022-09-25T05:23:09.896Z,16.20
2022-09-25T05:25:38.873Z,16.30
2022-09-25T05:28:07.958Z,16.10
2022-09-25T05:30:39.105Z,16.00
2022-09-25T05:33:08.051Z,15.80
2022-09-25T05:35:37.546Z,15.90
2022-09-25T05:38:09.358Z,14.90
2022-09-25T05:40:40.491Z,14.10
2022-09-25T05:43:09.894Z,13.50
2022-09-25T05:45:40.121Z,13.10
2022-09-25T05:48:10.345Z,12.90
2022-09-25T05:50:39.469Z,12.60
2022-09-25T05:53:08.112Z,12.40
2022-09-25T05:55:36.884Z,12.30
2022-09-25T05:58:07.479Z,12.30
2022-09-25T06:00:36.619Z,12.20
2022-09-25T06:03:05.393Z,11.90
2022-09-25T06:05:33.998Z,12.10
2022-09-25T06:08:03.146Z,12.40
2022-09-25T06:10:32.961Z,12.10
2022-09-25T06:13:02.944Z,12.70
2022-09-25T06:15:37.796Z,12.90
2022-09-25T06:18:08.937Z,13.10
2022-09-25T06:20:37.998Z,13.50
2022-09-25T06:23:06.631Z,13.30
2022-09-25T06:25:36.687Z,13.10
2022-09-25T06:28:06.302Z,13.00
2022-09-25T06:30:38.509Z,13.00
2022-09-25T06:33:09.818Z,13.10
2022-09-25T06:35:42.970Z,13.10
2022-09-25T06:38:13.101Z,13.20
2022-09-25T06:40:43.976Z,13.40
2022-09-25T06:43:14.247Z,15.00
2022-09-25T06:45:48.276Z,16.90
2022-09-25T06:48:17.365Z,18.40
2022-09-25T06:50:49.394Z,20.00
2022-09-25T06:53:19.319Z,21.00
2022-09-25T06:55:48.708Z,21.30
2022-09-25T06:58:19.805Z,21.90
2022-09-25T07:00:51.107Z,22.50
2022-09-25T07:03:38.715Z,23.20
2022-09-25T07:06:09.337Z,23.30
2022-09-25T07:08:38.181Z,23.70
2022-09-25T07:11:07.759Z,24.00
2022-09-25T07:13:38.307Z,24.10
2022-09-25T07:16:10.131Z,24.30
2022-09-25T07:18:40.390Z,24.90
2022-09-25T07:21:11.238Z,25.10
2022-09-25T07:23:42.121Z,25.30
2022-09-25T07:26:14.124Z,25.70
2022-09-25T07:28:44.926Z,25.70
2022-09-25T07:31:19.996Z,25.60
2022-09-25T07:33:49.823Z,25.70
2022-09-25T07:36:19.737Z,25.70
2022-09-25T07:38:51.155Z,26.10
2022-09-25T07:41:22.896Z,26.20
2022-09-25T07:44:17.622Z,26.40
2022-09-25T07:46:46.862Z,26.10
2022-09-25T07:49:16.023Z,26.20
2022-09-25T07:51:45.475Z,26.20
2022-09-25T07:54:14.756Z,26.70
2022-09-25T07:56:45.047Z,26.90
2022-09-25T07:59:14.401Z,26.20
2022-09-25T08:01:45.644Z,26.20
2022-09-25T08:04:19.249Z,26.60
2022-09-25T08:06:48.581Z,26.90
2022-09-25T08:09:17.396Z,27.10
2022-09-25T08:11:46.191Z,27.20
2022-09-25T08:14:16.378Z,26.90
2022-09-25T08:16:45.138Z,27.30
2022-09-25T08:19:20.957Z,27.10
2022-09-25T08:21:52.003Z,26.50
2022-09-25T08:24:20.801Z,26.00
2022-09-25T08:26:50.503Z,25.60
2022-09-25T08:29:19.538Z,25.40
2022-09-25T08:31:49.518Z,25.50
2022-09-25T08:34:39.970Z,25.50
2022-09-25T08:37:09.424Z,25.70
2022-09-25T08:39:39.528Z,25.80
2022-09-25T08:42:08.711Z,26.00
2022-09-25T08:44:52.662Z,26.00
2022-09-25T08:47:47.824Z,26.10
2022-09-25T08:50:21.930Z,26.20
2022-09-25T08:52:55.496Z,25.40
2022-09-25T08:55:49.218Z,25.90
2022-09-25T08:58:28.786Z,26.10
2022-09-25T09:01:02.430Z,25.60
2022-09-25T09:03:34.905Z,25.80
2022-09-25T09:06:12.791Z,25.80
2022-09-25T09:08:50.957Z,25.70
2022-09-25T09:11:26.650Z,24.80
2022-09-25T09:14:03.034Z,24.20
2022-09-25T09:16:37.901Z,23.90
2022-09-25T09:19:10.326Z,23.70
2022-09-25T09:21:42.096Z,23.60
2022-09-25T09:24:17.918Z,23.60
2022-09-25T09:27:08.026Z,23.50
2022-09-25T09:30:05.731Z,23.10
2022-09-25T09:33:14.196Z,23.10
2022-09-25T09:35:54.705Z,22.90
2022-09-25T09:38:33.789Z,23.00
2022-09-25T09:41:22.281Z,22.60
2022-09-25T09:44:08.838Z,22.60
2022-09-25T09:47:00.078Z,22.90
2022-09-25T09:49:35.854Z,23.10
2022-09-25T09:52:11.283Z,23.40
2022-09-25T09:54:49.157Z,22.90
2022-09-25T09:57:25.350Z,22.30
2022-09-25T10:00:04.406Z,21.50
2022-09-25T10:02:41.499Z,21.10
2022-09-25T10:05:25.052Z,20.40
2022-09-25T10:07:54.933Z,20.40
2022-09-25T10:10:31.394Z,19.70
2022-09-25T10:13:06.925Z,19.40
2022-09-25T10:15:41.452Z,19.60
2022-09-25T10:18:11.211Z,20.00
2022-09-25T10:20:44.398Z,20.40
2022-09-25T10:23:32.224Z,21.30
2022-09-25T10:26:01.380Z,21.70
2022-09-25T10:28:35.227Z,22.10
2022-09-25T10:31:10.546Z,21.90
2022-09-25T10:33:44.033Z,21.90
2022-09-25T10:36:13.298Z,21.80
2022-09-25T10:38:50.585Z,21.90
2022-09-25T10:41:22.867Z,21.80
2022-09-25T10:43:58.548Z,22.20
2022-09-25T10:46:49.554Z,22.00
2022-09-25T10:49:40.854Z,21.80
2022-09-25T10:52:12.817Z,22.20
2022-09-25T10:54:45.581Z,22.00
2022-09-25T10:57:25.674Z,22.10
2022-09-25T10:59:56.044Z,22.30
2022-09-25T11:02:34.734Z,22.20
2022-09-25T11:05:04.898Z,22.70
2022-09-25T11:07:36.389Z,22.70
2022-09-25T11:10:07.144Z,22.20
2022-09-25T11:12:39.799Z,21.60
2022-09-25T11:15:21.701Z,21.10
2022-09-25T11:17:53.061Z,20.80
2022-09-25T11:20:31.071Z,20.80
2022-09-25T11:23:30.012Z,21.30
2022-09-25T11:26:07.489Z,21.40
2022-09-25T11:28:48.102Z,21.30
2022-09-25T11:31:28.024Z,21.70
2022-09-25T11:34:07.803Z,22.00
2022-09-25T11:36:44.962Z,22.30
2022-09-25T11:39:38.453Z,22.20
2022-09-25T11:42:13.896Z,21.80
2022-09-25T11:44:58.199Z,22.20
2022-09-25T11:47:34.133Z,22.30
2022-09-25T11:50:04.006Z,22.40
2022-09-25T11:52:41.886Z,22.70
2022-09-25T11:55:46.068Z,23.20
2022-09-25T11:58:40.543Z,23.20
2022-09-25T12:01:23.875Z,22.80
2022-09-25T12:04:27.962Z,22.70
2022-09-25T12:07:40.112Z,22.60
2022-09-25T12:10:35.931Z,22.20
2022-09-25T12:13:21.584Z,22.60
2022-09-25T12:15:59.884Z,22.60
2022-09-25T12:18:50.901Z,22.60
2022-09-25T12:21:34.741Z,22.00
2022-09-25T12:24:15.315Z,22.20
2022-09-25T12:26:54.667Z,21.80
2022-09-25T12:29:38.131Z,21.70
2022-09-25T12:32:18.727Z,21.30
2022-09-25T12:35:13.591Z,20.90
2022-09-25T12:37:50.054Z,21.00
2022-09-25T12:40:30.192Z,21.20
2022-09-25T12:43:04.125Z,21.60
2022-09-25T12:45:40.751Z,21.80
2022-09-25T12:48:16.350Z,22.00
2022-09-25T12:50:53.633Z,22.20
2022-09-25T12:53:35.718Z,22.30
2022-09-25T12:56:13.534Z,22.10
2022-09-25T12:58:53.608Z,21.90
2022-09-25T13:01:31.829Z,22.00
2022-09-25T13:04:17.167Z,22.10
2022-09-25T13:06:52.199Z,22.00
2022-09-25T13:09:35.101Z,21.80
2022-09-25T13:12:11.151Z,21.90
2022-09-25T13:14:46.074Z,22.00
2022-09-25T13:17:16.900Z,22.00
2022-09-25T13:19:47.798Z,21.80
2022-09-25T13:22:21.979Z,21.80
2022-09-25T13:25:00.591Z,21.80
2022-09-25T13:27:37.477Z,21.70
2022-09-25T13:30:08.064Z,21.70
2022-09-25T13:32:51.245Z,21.80
2022-09-25T13:35:26.435Z,21.80
2022-09-25T13:38:15.261Z,21.60
2022-09-25T13:40:51.486Z,21.50
2022-09-25T13:43:27.474Z,21.50
2022-09-25T13:46:35.475Z,21.80
2022-09-25T13:49:37.839Z,21.50
2022-09-25T13:52:33.678Z,21.40
2022-09-25T13:55:21.425Z,21.40
2022-09-25T13:58:18.006Z,21.30
2022-09-25T14:00:59.081Z,21.20
2022-09-25T14:03:45.169Z,21.50
2022-09-25T14:06:29.953Z,21.10
2022-09-25T14:09:08.902Z,21.10
2022-09-25T14:11:47.376Z,20.90
2022-09-25T14:14:33.961Z,20.80
2022-09-25T14:17:06.344Z,20.50
2022-09-25T14:19:41.503Z,20.30
2022-09-25T14:22:23.536Z,20.20
2022-09-25T14:24:53.902Z,19.70
2022-09-25T14:27:28.853Z,19.60
2022-09-25T14:30:17.424Z,19.40
2022-09-25T14:32:59.405Z,19.30
2022-09-25T14:35:48.412Z,19.10
2022-09-25T14:38:53.176Z,18.90
2022-09-25T14:41:51.869Z,18.70
2022-09-25T14:44:43.374Z,18.60
2022-09-25T14:47:17.281Z,18.50
2022-09-25T14:49:51.299Z,18.40
2022-09-25T14:52:26.818Z,18.40
2022-09-25T14:55:00.658Z,18.50
2022-09-25T14:57:43.073Z,18.50
2022-09-25T15:00:20.713Z,18.50
2022-09-25T15:02:57.537Z,18.60
2022-09-25T15:05:42.426Z,18.70
2022-09-25T15:08:24.566Z,18.70
2022-09-25T15:11:05.401Z,18.40
2022-09-25T15:13:36.293Z,18.60
2022-09-25T15:16:29.088Z,18.60
2022-09-25T15:19:03.586Z,18.70
2022-09-25T15:21:45.298Z,18.70
2022-09-25T15:24:20.289Z,18.60
2022-09-25T15:26:54.957Z,18.50
2022-09-25T15:29:25.835Z,18.60
2022-09-25T15:31:59.349Z,18.60
2022-09-25T15:34:34.022Z,18.30
2022-09-25T15:37:26.992Z,18.60
2022-09-25T15:40:03.277Z,18.60
2022-09-25T15:42:36.082Z,18.60
2022-09-25T15:45:30.168Z,18.60
2022-09-25T15:48:00.618Z,18.50
2022-09-25T15:51:01.384Z,18.30
2022-09-25T15:53:35.129Z,18.10
2022-09-25T15:56:30.717Z,18.10
2022-09-25T15:59:03.495Z,18.10
2022-09-25T16:01:53.739Z,18.00
2022-09-25T16:04:41.910Z,17.90
2022-09-25T16:07:38.323Z,17.80
2022-09-25T16:10:30.944Z,17.80
2022-09-25T16:13:00.761Z,17.70
2022-09-25T16:15:54.930Z,17.70
2022-09-25T16:18:34.543Z,17.30
2022-09-25T16:21:26.151Z,17.40
2022-09-25T16:24:10.800Z,17.50
2022-09-25T16:26:43.088Z,17.50
2022-09-25T16:29:22.944Z,17.30
2022-09-25T16:31:57.412Z,17.30
2022-09-25T16:34:30.443Z,17.30
2022-09-25T16:37:03.743Z,17.20
2022-09-25T16:39:38.623Z,17.10
2022-09-25T16:42:31.725Z,17.10
2022-09-25T16:45:07.095Z,17.00
2022-09-25T16:47:36.536Z,17.00
2022-09-25T16:50:07.183Z,17.00
2022-09-25T16:52:41.367Z,17.00
2022-09-25T16:55:21.890Z,17.10
2022-09-25T16:57:53.181Z,17.40
2022-09-25T17:00:24.936Z,17.00
2022-09-25T17:02:57.252Z,17.10
2022-09-25T17:05:29.749Z,16.90
2022-09-25T17:08:00.828Z,16.80
2022-09-25T17:10:33.557Z,16.80
2022-09-25T17:13:04.740Z,16.70
2022-09-25T17:15:37.170Z,16.50
2022-09-25T17:18:17.392Z,16.50
2022-09-25T17:20:56.273Z,16.70
2022-09-25T17:23:27.500Z,16.60
2022-09-25T17:26:04.674Z,16.50
2022-09-25T17:28:34.523Z,16.30
2022-09-25T17:31:05.231Z,16.30
2022-09-25T17:33:34.161Z,17.00
2022-09-25T17:36:05.906Z,17.30
2022-09-25T17:38:38.705Z,17.30
2022-09-25T17:41:21.123Z,17.30
2022-09-25T17:43:50.621Z,17.10
2022-09-25T17:46:20.565Z,17.00
2022-09-25T17:48:54.562Z,16.60
2022-09-25T17:51:25.818Z,16.30
2022-09-25T17:53:56.721Z,16.10
2022-09-25T17:56:30.281Z,15.60
2022-09-25T17:58:59.740Z,15.80
2022-09-25T18:01:36.546Z,15.70
2022-09-25T18:04:21.597Z,15.70
2022-09-25T18:06:51.288Z,15.60
2022-09-25T18:09:21.664Z,15.60
2022-09-25T18:11:52.988Z,15.50
2022-09-25T18:14:22.001Z,15.50
2022-09-25T18:16:50.809Z,15.50
2022-09-25T18:19:39.230Z,15.40
2022-09-25T18:22:22.034Z,15.40
2022-09-25T18:24:57.165Z,15.60
2022-09-25T18:27:30.095Z,15.50
2022-09-25T18:29:59.285Z,15.40
2022-09-25T18:32:28.163Z,15.30
2022-09-25T18:34:57.070Z,15.30
2022-09-25T18:37:26.289Z,15.20
2022-09-25T18:39:55.587Z,15.20
2022-09-25T18:42:24.456Z,15.10
2022-09-25T18:44:55.078Z,15.00
2022-09-25T18:47:24.027Z,14.90
2022-09-25T18:49:53.084Z,15.00
2022-09-25T18:52:22.807Z,15.00
2022-09-25T18:54:52.075Z,14.90
2022-09-25T18:57:21.233Z,14.90
2022-09-25T18:59:50.419Z,14.80
2022-09-25T19:02:26.068Z,14.70
2022-09-25T19:04:56.491Z,14.60
2022-09-25T19:07:26.342Z,14.60
2022-09-25T19:09:55.236Z,14.50
2022-09-25T19:12:25.182Z,14.50
2022-09-25T19:14:53.819Z,14.40
2022-09-25T19:17:24.027Z,14.30
2022-09-25T19:19:53.836Z,14.30
2022-09-25T19:22:24.417Z,14.20
2022-09-25T19:24:53.200Z,14.20
2022-09-25T19:27:22.663Z,14.20
2022-09-25T19:29:51.967Z,14.10
2022-09-25T19:32:22.806Z,14.10
2022-09-25T19:34:52.367Z,14.10
2022-09-25T19:37:24.162Z,13.90
2022-09-25T19:40:19.375Z,14.00
2022-09-25T19:42:50.661Z,14.00
2022-09-25T19:45:22.561Z,13.90
2022-09-25T19:47:54.788Z,14.00
2022-09-25T19:50:23.808Z,13.90
2022-09-25T19:52:54.973Z,13.90
2022-09-25T19:55:23.779Z,13.80
2022-09-25T19:57:53.232Z,13.50
2022-09-25T20:00:22.868Z,13.80
2022-09-25T20:02:54.767Z,13.70
2022-09-25T20:05:23.769Z,13.70
2022-09-25T20:07:55.575Z,13.60
2022-09-25T20:10:30.955Z,13.60
2022-09-25T20:13:00.871Z,13.50
2022-09-25T20:15:33.634Z,13.50
2022-09-25T20:18:07.778Z,13.50
2022-09-25T20:20:38.412Z,13.40
2022-09-25T20:23:18.329Z,13.30
2022-09-25T20:26:02.138Z,13.30
2022-09-25T20:28:34.304Z,13.30
2022-09-25T20:31:07.988Z,13.30
2022-09-25T20:33:39.629Z,13.20
2022-09-25T20:36:12.357Z,13.20
2022-09-25T20:38:46.057Z,13.20
2022-09-25T20:41:15.671Z,13.10
2022-09-25T20:43:45.350Z,13.10
2022-09-25T20:46:17.458Z,13.00
2022-09-25T20:48:57.595Z,13.00
2022-09-25T20:51:29.311Z,13.00
2022-09-25T20:54:07.043Z,13.00
2022-09-25T20:56:37.839Z,13.00
2022-09-25T20:59:09.830Z,13.00
2022-09-25T21:01:42.153Z,13.00
2022-09-25T21:04:20.330Z,12.80
2022-09-25T21:06:49.693Z,13.00
2022-09-25T21:09:21.934Z,13.00
2022-09-25T21:11:52.933Z,13.00
2022-09-25T21:14:23.245Z,13.00
2022-09-25T21:16:53.504Z,13.00
2022-09-25T21:19:25.051Z,13.00
2022-09-25T21:21:53.915Z,13.00
2022-09-25T21:24:24.038Z,13.00
2022-09-25T21:26:53.122Z,13.00
2022-09-25T21:29:22.213Z,12.90
2022-09-25T21:31:51.314Z,12.90
2022-09-25T21:34:21.263Z,12.80
2022-09-25T21:36:51.507Z,12.80
2022-09-25T21:39:21.417Z,12.70
2022-09-25T21:41:50.885Z,12.70
2022-09-25T21:44:25.215Z,12.70
2022-09-25T21:46:54.504Z,12.70
2022-09-25T21:49:24.730Z,12.60
2022-09-25T21:51:57.276Z,13.20
2022-09-25T21:54:28.523Z,13.30
2022-09-25T21:56:57.337Z,13.10
2022-09-25T21:59:26.238Z,12.90
2022-09-25T22:01:56.103Z,12.80
2022-09-25T22:04:25.485Z,12.70
2022-09-25T22:06:57.680Z,12.60
2022-09-25T22:09:27.650Z,12.50
2022-09-25T22:11:56.336Z,12.50
2022-09-25T22:14:24.961Z,12.50
2022-09-25T22:16:54.357Z,12.40
2022-09-25T22:19:26.907Z,12.30
2022-09-25T22:22:12.659Z,12.40
2022-09-25T22:24:41.375Z,12.30
2022-09-25T22:27:10.337Z,12.30
2022-09-25T22:29:42.195Z,12.20
2022-09-25T22:32:10.968Z,12.20
2022-09-25T22:34:40.836Z,12.20
2022-09-25T22:37:14.107Z,12.10
2022-09-25T22:39:43.431Z,12.00
2022-09-25T22:42:15.387Z,12.10
2022-09-25T22:44:45.635Z,11.50
2022-09-25T22:47:14.913Z,12.10
2022-09-25T22:49:44.199Z,12.10
2022-09-25T22:52:15.725Z,12.10
2022-09-25T22:54:45.155Z,12.10
2022-09-25T22:57:14.136Z,12.10
2022-09-25T22:59:42.839Z,12.00
2022-09-25T23:02:11.641Z,12.00
2022-09-25T23:04:40.751Z,12.00
2022-09-25T23:07:09.583Z,12.00
2022-09-25T23:09:39.855Z,11.90
2022-09-25T23:12:08.676Z,11.90
2022-09-25T23:14:37.899Z,11.90
2022-09-25T23:17:08.294Z,11.90
2022-09-25T23:19:37.162Z,12.00
2022-09-25T23:22:05.817Z,12.00
2022-09-25T23:24:55.128Z,12.00
2022-09-25T23:27:30.887Z,12.10
2022-09-25T23:29:59.638Z,12.00
2022-09-25T23:32:34.663Z,12.00
2022-09-25T23:35:03.633Z,12.10
2022-09-25T23:37:37.306Z,12.10
2022-09-25T23:40:15.724Z,12.10
2022-09-25T23:43:13.773Z,12.10
2022-09-25T23:46:08.127Z,12.30
2022-09-25T23:48:37.715Z,12.40
2022-09-25T23:51:07.146Z,12.30
2022-09-25T23:53:39.468Z,12.20
2022-09-25T23:56:17.900Z,12.20
2022-09-25T23:58:49.400Z,12.50
